ARBÚCIES (La Selva)





Hora UTC 08:20
Temperatura -0.7 ºC
Humedad 75.1 %
Presión 1031.0 hPa
Pluja 0.0 mm
Velocidad viento 4.8 km/h
Dirección viento SSW
Radiación solar 32.9 W/m²

Datos diarios 2023-01-30



Hora UTC (invierno +1h; verano +2h)
Temperatura (ºC) Humedad (%) Presión (hPa) Velocidad viento (km/h) Precipitación (mm) Radiación solar (W/m²)
Hora UTC Aire Humedad Presión Vel. Dir. Vel. Max Dir. Intent. máx 5 min. Rad. Sol.
00:05 -2.7 83.7 1030.0 2.5 WSW 4.6 SW 0.0 0.0
00:10 -2.9 84.2 1030.0 2.8 WSW 4.9 W 0.0 0.0
00:15 -3.0 84.9 1030.0 3.7 WSW 6.4 SW 0.0 0.0
00:20 -3.1 85.6 1029.0 4.2 WSW 6.7 WSW 0.0 0.0
00:25 -3.1 86.1 1030.0 4.8 SW 7.1 SW 0.0 0.0
00:30 -3.1 86.6 1030.0 4.0 SW 6.0 SW 0.0 0.0
00:35 -3.1 87.0 1030.0 4.1 SW 8.1 SW 0.0 0.0
00:40 -3.1 87.8 1029.0 6.1 SW 9.2 SSW 0.0 0.0
00:45 -3.0 88.7 1030.0 6.2 SW 9.5 SW 0.0 0.0
00:50 -3.0 88.7 1029.0 4.2 SW 8.1 SW 0.0 0.0
00:55 -3.1 88.5 1030.0 1.2 WSW 3.5 WSW 0.0 0.0
01:00 -3.3 88.5 1029.0 3.9 SW 7.4 SW 0.0 0.0
01:05 -3.3 89.5 1029.0 6.5 SW 9.9 SSW 0.0 0.0
01:10 -3.1 90.6 1030.0 6.9 SW 8.5 SSW 0.0 0.0
01:15 -3.0 91.2 1029.0 7.1 SW 9.2 SW 0.0 0.0
01:20 -3.0 91.2 1029.0 7.0 SW 8.5 SW 0.0 0.0
01:25 -3.0 91.3 1030.0 7.2 SW 8.8 SSW 0.0 0.0
01:30 -2.8 91.6 1029.0 6.3 SW 8.8 SW 0.0 0.0
01:35 -2.9 91.1 1029.0 5.7 SW 7.8 SSW 0.0 0.0
01:40 -3.1 90.7 1029.0 4.7 SW 6.4 SW 0.0 0.0
01:45 -3.2 90.8 1029.0 3.9 SW 6.0 SSW 0.0 0.0
01:50 -3.2 91.0 1029.0 2.9 SW 4.9 SW 0.0 0.0
01:55 -3.3 90.9 1030.0 2.2 SW 4.6 SW 0.0 0.0
02:00 -3.3 91.1 1029.0 1.6 SW 2.8 WSW 0.0 0.0
02:05 -3.3 91.3 1029.0 1.3 SW 2.8 SW 0.0 0.0
02:10 -3.3 91.4 1029.0 0.5 SW 3.2 SW 0.0 0.0
02:15 -3.2 92.2 1029.0 1.3 WSW 6.0 WSW 0.0 0.0
02:20 -3.1 92.3 1029.0 0.8 WNW 4.6 WSW 0.0 0.0
02:25 -3.0 92.3 1030.0 0.5 SW 2.8 WSW 0.0 0.0
02:30 -3.0 92.0 1029.0 1.4 WSW 4.2 NW 0.0 0.0
02:35 -2.9 91.9 1029.0 2.6 SW 6.0 SSW 0.0 0.0
02:40 -2.6 92.7 1029.0 1.2 WSW 3.9 SW 0.0 0.0
02:45 -2.0 92.9 1029.0 4.7 SW 13.1 SSW 0.0 0.0
02:50 -1.6 91.9 1029.0 5.6 SW 9.2 SSW 0.0 0.0
02:55 -1.2 89.0 1030.0 5.1 SW 13.1 SSW 0.0 0.0
03:00 -0.9 87.1 1029.0 4.7 SW 10.2 SSW 0.0 0.0
03:05 -0.6 84.6 1029.0 4.8 SW 11.3 WSW 0.0 0.0
03:10 -0.2 81.9 1029.0 5.4 SW 17.3 WSW 0.0 0.0
03:15 0.6 76.8 1029.0 5.6 WSW 12.3 W 0.0 0.0
03:20 1.3 72.0 1029.0 6.8 SW 13.8 SW 0.0 0.0
03:25 1.8 67.7 1030.0 6.1 SW 17.3 SW 0.0 0.0
03:30 1.7 67.3 1029.0 6.0 SW 13.1 SW 0.0 0.0
03:35 1.8 66.6 1029.0 7.4 SW 14.8 SSW 0.0 0.0
03:40 1.7 66.8 1029.0 6.7 SW 13.8 SSW 0.0 0.0
03:45 2.1 65.5 1028.0 7.7 SW 14.5 SW 0.0 0.0
03:50 2.5 63.8 1029.0 9.8 SW 16.6 SSW 0.0 0.0
03:55 2.8 62.1 1029.0 12.5 SW 29.6 WSW 0.0 0.0
04:00 3.0 61.1 1029.0 11.3 SW 20.8 SW 0.0 0.0
04:05 3.1 60.2 1029.0 12.3 SW 22.2 SSW 0.0 0.0
04:10 3.2 59.7 1029.0 12.9 SW 23.6 SW 0.0 0.0
04:15 3.2 59.1 1029.0 10.9 SW 20.5 SW 0.0 0.0
04:20 3.2 58.8 1029.0 9.6 SW 20.5 SSW 0.0 0.0
04:25 3.1 58.8 1029.0 10.9 SSW 18.3 SW 0.0 0.0
04:30 3.0 59.2 1029.0 8.7 SW 16.2 SSW 0.0 0.0
04:35 2.9 59.6 1029.0 9.6 SSW 20.5 SW 0.0 0.0
04:40 3.0 59.1 1029.0 8.3 SW 14.1 SW 0.0 0.0
04:45 2.9 59.4 1029.0 10.9 SW 25.4 SW 0.0 0.0
04:50 2.8 59.3 1029.0 9.6 SW 20.5 SSW 0.0 0.0
04:55 2.7 59.8 1030.0 9.8 SW 21.2 SW 0.0 0.0
05:00 2.8 59.6 1029.0 10.5 SW 25.8 SSW 0.0 0.0
05:05 2.7 59.5 1029.0 6.6 SW 19.8 WSW 0.0 0.0
05:10 2.6 59.7 1029.0 7.6 SW 14.8 WSW 0.0 0.0
05:15 2.5 59.7 1029.0 7.5 SW 16.2 SW 0.0 0.0
05:20 2.3 60.0 1029.0 7.3 SW 14.5 S 0.0 0.0
05:25 2.4 60.0 1029.0 10.2 SW 21.5 SW 0.0 0.0
05:30 2.7 58.8 1029.0 8.3 SW 16.6 SW 0.0 0.0
05:35 2.0 61.1 1029.0 6.4 SW 17.6 SSW 0.0 0.0
05:40 2.2 60.7 1029.0 7.7 SW 14.5 SW 0.0 0.0
05:45 1.8 62.2 1029.0 6.3 SW 14.1 W 0.0 0.0
05:50 2.0 61.4 1029.0 6.8 SW 11.6 SW 0.0 0.0
05:55 2.2 60.6 1029.0 10.0 SW 18.3 SW 0.0 0.0
06:00 2.6 59.0 1029.0 9.2 SW 20.1 SW 0.0 0.0
06:05 2.6 58.2 1029.0 7.9 SW 16.9 SW 0.0 0.0
06:10 2.8 57.8 1029.0 9.9 SW 24.0 SW 0.0 0.0
06:15 2.6 58.5 1029.0 9.6 SW 22.6 SSW 0.0 0.0
06:20 2.7 57.4 1029.0 8.8 SSW 16.9 SSW 0.0 0.0
06:25 2.7 56.6 1029.0 10.4 SW 16.2 SW 0.0 0.0
06:30 2.5 57.1 1029.0 9.8 SW 18.0 SW 0.0 0.0
06:35 2.4 57.6 1029.0 9.8 SSW 14.8 SSW 0.0 0.0
06:40 2.0 58.4 1029.0 6.7 SW 12.3 WSW 0.0 0.0
06:45 1.5 60.1 1029.0 7.2 SSW 11.6 SSW 0.0 0.0
06:50 0.9 63.2 1029.0 7.5 SW 11.6 WSW 0.0 0.0
06:55 1.3 62.4 1030.0 8.7 SW 17.3 SW 0.0 0.0
07:00 1.3 63.0 1030.0 7.0 SW 13.1 SSW 0.0 0.1
07:05 1.7 60.8 1030.0 6.4 SSW 11.6 SW 0.0 0.9
07:10 1.5 61.4 1030.0 5.9 SW 12.0 SSW 0.0 2.3
07:15 1.9 60.5 1030.0 5.1 SW 9.9 W 0.0 5.1
07:20 1.8 59.7 1030.0 5.5 SW 14.8 SW 0.0 7.2
07:25 1.2 61.7 1031.0 4.1 SW 8.5 SSW 0.0 9.1
07:30 0.8 64.8 1030.0 1.8 E 4.9 E 0.0 11.6
07:35 0.7 65.5 1030.0 2.7 ENE 8.5 ESE 0.0 14.2
07:40 0.5 67.0 1031.0 1.9 SE 5.6 E 0.0 16.9
07:45 0.2 67.2 1030.0 1.1 WSW 4.6 SW 0.0 18.6
07:50 -0.2 69.1 1031.0 2.2 SW 4.2 SW 0.0 21.2
07:55 -0.4 70.4 1031.0 4.2 SW 6.0 SW 0.0 23.2
08:00 -0.7 71.6 1031.0 4.4 SW 7.8 SW 0.0 24.8
08:05 -0.8 73.0 1030.0 4.2 SW 7.8 SSW 0.0 26.8
08:10 -0.9 74.0 1031.0 3.0 SW 6.4 SSW 0.0 28.7
08:15 -0.9 74.2 1030.0 2.9 SW 5.3 SSW 0.0 30.1
08:20 -0.7 75.1 1031.0 4.8 SSW 6.0 SSW 0.0 32.9
Máxima 3.2 92.9 1031.0 12.9 SW 29.6 WSW 0.0 32.9
Mínima -3.3 56.6 1028.0
Total 0.0